LIBQ  Monte Scuro Airport

Add Bookmark

Italy

Status
Operational
Latitude Longitude
39° 19' 12" N 16° 22' 47" E
39.320000 16.380000
Local (DST + 2) UTC (GMT + 1)
Jul 31, 2014 05:18 Jul 31, 2014 03:18
Sunrise-Sunset Local UTC
Begin Civil Twilight 05:22 03:22
Sunrise 05:52 03:52
Sunset 08:09 18:09
End Civil Twilight 08:39 18:39

Current Weather

METAR Observed LIFR
LIBQ 310255Z 27015KT 0000 FG VV/// 09/09 Q1013 Thu, Jul 31, 2014 @ 02:55 UTC
(23 Minutes ago)
Low Instrument Flight Rules

Decoded METAR

Wind Visibility Clouds Conditions
270° at 15 knots (28 kph) Less than 50 metres
  • Fog
Temperatures Readings Precipitation
Current Temp 9°C (48°F)
Dewpoint 9°C (48°F)
Humidity 100%
Altimeter 29.91"Hg
Sea Level Pressure 1013mb
Field Elevation 5643.04'
None Recorded

Additional weather within a 92.6km radius of LIBQ

Map ICAO Location
LICA 47.6km S (195°)
LIBC 70.2km E (121°)

24 Hour Weather History

Loading
-

24 Hour Weather Graphs

Loading
-

CheckWX.com is intended as a tool to help pilots better visualize weather data. It is not intended as a substitute for an official weather briefing obtained from a Flight Service Station. CheckWX.com does not meet the FAA requirements for an official pre-flight weather briefing. Therefore, it's important that pilots still call and obtain an official FSS pre-flight weather briefing.